createdAt,value
2022-07-28T00:01:13.140Z,53.70
2022-07-28T00:03:40.493Z,53.28
2022-07-28T00:06:07.466Z,53.20
2022-07-28T00:08:34.253Z,52.96
2022-07-28T00:11:01.006Z,52.68
2022-07-28T00:13:27.774Z,51.57
2022-07-28T00:15:54.608Z,51.85
2022-07-28T00:18:21.417Z,53.58
2022-07-28T00:20:48.404Z,53.15
2022-07-28T00:23:15.298Z,52.56
2022-07-28T00:25:42.236Z,52.38
2022-07-28T00:28:09.015Z,53.68
2022-07-28T00:30:36.452Z,53.32
2022-07-28T00:33:03.506Z,53.13
2022-07-28T00:35:31.723Z,54.11
2022-07-28T00:37:59.435Z,54.36
2022-07-28T00:40:46.925Z,54.61
2022-07-28T00:43:14.075Z,53.61
2022-07-28T00:45:40.860Z,53.76
2022-07-28T00:48:07.770Z,53.86
2022-07-28T00:50:34.636Z,53.53
2022-07-28T00:53:01.560Z,53.91
2022-07-28T00:55:28.355Z,55.65
2022-07-28T00:57:55.245Z,54.32
2022-07-28T01:00:22.365Z,54.05
2022-07-28T01:02:49.799Z,54.84
2022-07-28T01:05:16.705Z,53.98
2022-07-28T01:08:52.512Z,53.91
2022-07-28T01:11:32.756Z,54.09
2022-07-28T01:14:26.559Z,53.91
2022-07-28T01:17:09.089Z,52.94
2022-07-28T01:20:05.898Z,53.23
2022-07-28T01:22:38.892Z,52.29
2022-07-28T01:25:21.676Z,52.38
2022-07-28T01:27:48.418Z,52.82
2022-07-28T01:30:34.340Z,52.54
2022-07-28T01:33:41.435Z,51.64
2022-07-28T01:36:29.521Z,51.51
2022-07-28T01:38:57.141Z,52.96
2022-07-28T01:41:27.940Z,52.99
2022-07-28T01:44:03.235Z,52.25
2022-07-28T01:46:30.587Z,52.69
2022-07-28T01:48:59.008Z,52.71
2022-07-28T01:51:29.485Z,53.80
2022-07-28T01:53:59.670Z,55.20
2022-07-28T01:56:28.765Z,54.38
2022-07-28T01:58:58.275Z,54.57
2022-07-28T02:01:25.624Z,56.05
2022-07-28T02:03:54.685Z,55.85
2022-07-28T02:06:22.806Z,56.59
2022-07-28T02:08:51.762Z,56.88
2022-07-28T02:11:37.474Z,57.50
2022-07-28T02:14:05.213Z,56.73
2022-07-28T02:16:32.358Z,55.47
2022-07-28T02:19:00.846Z,55.33
2022-07-28T02:21:31.419Z,56.48
2022-07-28T02:24:00.091Z,55.29
2022-07-28T02:26:35.618Z,56.84
2022-07-28T02:29:05.401Z,58.67
2022-07-28T02:31:57.135Z,56.51
2022-07-28T02:34:27.999Z,58.06
2022-07-28T02:36:59.094Z,56.49
2022-07-28T02:39:44.795Z,56.51
2022-07-28T02:42:30.924Z,57.09
2022-07-28T02:45:00.023Z,56.78
2022-07-28T02:47:31.549Z,58.58
2022-07-28T02:50:02.154Z,58.45
2022-07-28T02:52:29.966Z,60.31
2022-07-28T02:54:58.973Z,61.88
2022-07-28T02:57:27.325Z,60.98
2022-07-28T02:59:55.747Z,61.44
2022-07-28T03:02:23.006Z,60.79
2022-07-28T03:04:57.078Z,60.83
2022-07-28T03:07:24.098Z,60.69
2022-07-28T03:09:50.973Z,61.57
2022-07-28T03:12:21.967Z,60.69
2022-07-28T03:14:49.282Z,58.83
2022-07-28T03:17:16.708Z,60.12
2022-07-28T03:19:43.654Z,61.83
2022-07-28T03:22:10.780Z,60.89
2022-07-28T03:24:40.821Z,61.75
2022-07-28T03:27:28.785Z,62.90
2022-07-28T03:30:06.355Z,63.61
2022-07-28T03:32:36.785Z,63.35
2022-07-28T03:35:05.085Z,63.54
2022-07-28T03:37:49.995Z,63.47
2022-07-28T03:40:17.756Z,64.57
2022-07-28T03:42:47.825Z,64.53
2022-07-28T03:45:18.022Z,63.42
2022-07-28T03:47:56.302Z,64.42
2022-07-28T03:50:24.316Z,64.48
2022-07-28T03:52:51.725Z,64.60
2022-07-28T03:55:19.167Z,65.63
2022-07-28T03:57:46.126Z,65.20
2022-07-28T04:00:14.868Z,64.79
2022-07-28T04:02:43.995Z,64.39
2022-07-28T04:05:12.812Z,64.75
2022-07-28T04:07:40.835Z,64.05
2022-07-28T04:10:10.156Z,63.84
2022-07-28T04:12:47.867Z,62.74
2022-07-28T04:15:15.698Z,62.18
2022-07-28T04:17:43.566Z,62.24
2022-07-28T04:20:11.838Z,61.62
2022-07-28T04:22:38.954Z,63.65
2022-07-28T04:25:07.025Z,63.07
2022-07-28T04:27:35.753Z,62.25
2022-07-28T04:30:05.646Z,62.22
2022-07-28T04:32:32.553Z,62.51
2022-07-28T04:34:59.486Z,62.15
2022-07-28T04:37:27.461Z,62.65
2022-07-28T04:39:59.666Z,63.12
2022-07-28T04:42:26.717Z,62.58
2022-07-28T04:44:53.498Z,62.53
2022-07-28T04:47:20.284Z,61.73
2022-07-28T04:49:47.116Z,62.03
2022-07-28T04:52:14.145Z,62.67
2022-07-28T04:54:41.005Z,60.68
2022-07-28T04:57:12.009Z,57.81
2022-07-28T04:59:39.875Z,55.11
2022-07-28T05:02:06.974Z,52.55
2022-07-28T05:04:33.773Z,50.96
2022-07-28T05:07:02.289Z,50.15
2022-07-28T05:09:39.565Z,48.83
2022-07-28T05:12:06.821Z,47.63
2022-07-28T05:14:33.595Z,47.96
2022-07-28T05:17:00.452Z,47.20
2022-07-28T05:19:27.359Z,48.76
2022-07-28T05:21:54.066Z,47.36
2022-07-28T05:24:20.855Z,46.70
2022-07-28T05:26:47.595Z,45.11
2022-07-28T05:29:14.374Z,43.19
2022-07-28T05:31:41.200Z,43.21
2022-07-28T05:34:07.975Z,42.67
2022-07-28T05:36:36.186Z,42.79
2022-07-28T05:39:03.738Z,42.53
2022-07-28T05:41:30.597Z,43.13
2022-07-28T05:43:58.544Z,43.62
2022-07-28T05:46:25.413Z,45.03
2022-07-28T05:48:53.133Z,46.87
2022-07-28T05:51:19.945Z,45.85
2022-07-28T05:53:46.925Z,46.58
2022-07-28T05:56:13.755Z,45.11
2022-07-28T05:58:40.634Z,47.92
2022-07-28T06:01:07.558Z,47.18
2022-07-28T06:03:41.444Z,45.43
2022-07-28T06:06:15.828Z,46.01
2022-07-28T06:08:44.024Z,48.52
2022-07-28T06:11:11.936Z,47.25
2022-07-28T06:13:49.614Z,47.85
2022-07-28T06:16:16.546Z,47.45
2022-07-28T06:18:44.150Z,48.75
2022-07-28T06:21:11.143Z,48.74
2022-07-28T06:23:38.294Z,49.31
2022-07-28T06:26:05.124Z,48.55
2022-07-28T06:28:33.156Z,47.44
2022-07-28T06:30:59.986Z,47.59
2022-07-28T06:33:26.914Z,45.49
2022-07-28T06:35:53.796Z,44.74
2022-07-28T06:38:20.866Z,44.95
2022-07-28T06:40:48.596Z,43.86
2022-07-28T06:43:15.460Z,45.58
2022-07-28T06:45:42.465Z,44.12
2022-07-28T06:48:09.384Z,44.15
2022-07-28T06:50:39.485Z,43.37
2022-07-28T06:53:06.556Z,43.37
2022-07-28T06:55:35.522Z,41.80
2022-07-28T06:58:06.218Z,41.44
2022-07-28T07:00:33.186Z,41.49
2022-07-28T07:03:00.765Z,42.52
2022-07-28T07:05:30.084Z,40.71
2022-07-28T07:07:56.888Z,40.53
2022-07-28T07:10:24.098Z,40.10
2022-07-28T07:12:51.036Z,39.74
2022-07-28T07:15:17.906Z,38.43
2022-07-28T07:17:44.735Z,36.59
2022-07-28T07:20:13.624Z,37.19
2022-07-28T07:22:45.287Z,37.66
2022-07-28T07:25:15.382Z,35.02
2022-07-28T07:27:42.416Z,35.41
2022-07-28T07:30:10.156Z,36.28
2022-07-28T07:32:37.455Z,38.01
2022-07-28T07:35:05.113Z,39.54
2022-07-28T07:37:32.870Z,41.48
2022-07-28T07:40:00.494Z,43.77
2022-07-28T07:42:28.007Z,42.46
2022-07-28T07:44:55.178Z,42.83
2022-07-28T07:47:22.155Z,41.04
2022-07-28T07:49:49.526Z,39.53
2022-07-28T07:52:16.315Z,39.75
2022-07-28T07:54:43.669Z,41.92
2022-07-28T07:57:10.574Z,40.52
2022-07-28T07:59:37.557Z,40.46
2022-07-28T08:02:04.652Z,39.97
2022-07-28T08:04:31.908Z,41.18
2022-07-28T08:07:05.100Z,39.15
2022-07-28T08:09:33.166Z,39.53
2022-07-28T08:12:00.261Z,39.81
2022-07-28T08:14:27.096Z,39.93
2022-07-28T08:16:56.619Z,40.83
2022-07-28T08:19:23.700Z,40.09
2022-07-28T08:21:52.066Z,39.58
2022-07-28T08:24:31.672Z,40.59
2022-07-28T08:27:05.096Z,38.21
2022-07-28T08:29:32.575Z,37.18
2022-07-28T08:32:01.501Z,35.57
2022-07-28T08:34:33.178Z,36.00
2022-07-28T08:37:02.859Z,34.72
2022-07-28T08:39:30.975Z,36.08
2022-07-28T08:42:07.592Z,35.68
2022-07-28T08:44:55.277Z,33.11
2022-07-28T08:47:22.489Z,31.96
2022-07-28T08:49:52.078Z,33.68
2022-07-28T08:52:21.726Z,32.81
2022-07-28T08:54:50.154Z,32.28
2022-07-28T08:57:23.075Z,31.13
2022-07-28T08:59:50.325Z,30.28
2022-07-28T09:02:17.621Z,33.07
2022-07-28T09:04:46.499Z,29.28
2022-07-28T09:07:13.880Z,28.64
2022-07-28T09:09:40.776Z,29.10
2022-07-28T09:12:08.234Z,26.71
2022-07-28T09:14:35.174Z,27.38
2022-07-28T09:17:03.149Z,26.96
2022-07-28T09:19:34.053Z,26.21
2022-07-28T09:22:02.977Z,28.88
2022-07-28T09:24:36.613Z,25.25
2022-07-28T09:27:08.275Z,24.51
2022-07-28T09:29:36.935Z,25.81
2022-07-28T09:32:04.979Z,25.41
2022-07-28T09:34:46.377Z,24.38
2022-07-28T09:37:26.501Z,24.46
2022-07-28T09:39:58.345Z,24.89
2022-07-28T09:42:25.994Z,27.65
2022-07-28T09:45:24.292Z,25.20
2022-07-28T09:48:12.147Z,25.98
2022-07-28T09:50:41.015Z,27.37
2022-07-28T09:53:28.515Z,24.47
2022-07-28T09:56:01.291Z,27.08
2022-07-28T09:58:30.336Z,23.87
2022-07-28T10:01:08.045Z,23.42
2022-07-28T10:03:36.883Z,22.06
2022-07-28T10:06:08.508Z,22.18
2022-07-28T10:08:47.445Z,23.32
2022-07-28T10:11:15.978Z,22.61
2022-07-28T10:14:03.182Z,24.57
2022-07-28T10:16:36.978Z,23.07
2022-07-28T10:19:06.450Z,23.11
2022-07-28T10:21:40.597Z,19.56
2022-07-28T10:24:09.513Z,19.48
2022-07-28T10:26:44.988Z,20.18
2022-07-28T10:29:18.637Z,20.53
2022-07-28T10:31:55.164Z,24.14
2022-07-28T10:34:32.085Z,21.03
2022-07-28T10:37:03.095Z,23.29
2022-07-28T10:39:39.625Z,20.75
2022-07-28T10:42:11.276Z,20.89
2022-07-28T10:44:39.146Z,20.60
2022-07-28T10:47:18.413Z,20.45
2022-07-28T10:49:50.400Z,18.29
2022-07-28T10:55:08.643Z,18.74
2022-07-28T10:57:41.896Z,16.28
2022-07-28T11:00:13.210Z,21.09
2022-07-28T11:02:52.544Z,17.68
2022-07-28T11:05:36.561Z,18.64
2022-07-28T11:08:06.538Z,15.61
2022-07-28T11:11:07.695Z,17.94
2022-07-28T11:13:41.059Z,18.99
2022-07-28T11:16:14.648Z,19.68
2022-07-28T11:19:41.979Z,20.50
2022-07-28T11:22:19.215Z,22.19
2022-07-28T11:25:18.837Z,21.52
2022-07-28T11:27:54.630Z,22.05
2022-07-28T11:30:37.501Z,20.29
2022-07-28T11:33:07.254Z,19.06
2022-07-28T11:35:40.420Z,19.71
2022-07-28T11:38:09.377Z,19.21
2022-07-28T11:40:44.206Z,20.17
2022-07-28T11:43:36.006Z,18.48
2022-07-28T11:46:05.303Z,19.82
2022-07-28T11:48:37.327Z,20.44
2022-07-28T11:51:04.249Z,19.82
2022-07-28T11:53:41.907Z,20.35
2022-07-28T11:56:10.727Z,19.78
2022-07-28T11:58:38.956Z,20.42
2022-07-28T12:01:17.757Z,18.26
2022-07-28T12:03:49.197Z,20.43
2022-07-28T12:06:29.072Z,22.16
2022-07-28T12:09:05.477Z,22.89
2022-07-28T12:11:34.435Z,22.72
2022-07-28T12:14:04.454Z,20.36
2022-07-28T12:16:33.507Z,21.88
2022-07-28T12:19:01.682Z,21.35
2022-07-28T12:21:47.480Z,21.65
2022-07-28T12:24:27.926Z,20.90
2022-07-28T12:26:56.035Z,21.43
2022-07-28T12:29:24.107Z,22.00
2022-07-28T12:32:06.838Z,22.00
2022-07-28T12:34:35.336Z,21.59
2022-07-28T12:37:09.995Z,20.04
2022-07-28T12:39:39.907Z,20.61
2022-07-28T12:42:10.018Z,20.30
2022-07-28T12:44:37.856Z,20.27
2022-07-28T12:47:08.397Z,20.76
2022-07-28T12:49:36.586Z,19.27
2022-07-28T12:52:25.594Z,17.96
2022-07-28T12:54:55.737Z,19.57
2022-07-28T12:57:48.881Z,18.66
2022-07-28T13:00:20.129Z,18.23
2022-07-28T13:02:48.551Z,18.04
2022-07-28T13:05:55.631Z,19.02
2022-07-28T13:08:27.603Z,17.85
2022-07-28T13:10:58.593Z,18.76
2022-07-28T13:13:26.154Z,17.74
2022-07-28T13:16:31.797Z,18.28
2022-07-28T13:19:02.882Z,16.20
2022-07-28T13:21:56.605Z,18.65
2022-07-28T13:24:24.456Z,18.85
2022-07-28T13:26:51.355Z,20.25
2022-07-28T13:29:18.335Z,19.30
2022-07-28T13:31:45.195Z,20.62
2022-07-28T13:34:12.292Z,21.31
2022-07-28T13:36:39.457Z,19.81
2022-07-28T13:39:07.979Z,19.99
2022-07-28T13:41:42.080Z,19.00
2022-07-28T13:44:21.636Z,17.78
2022-07-28T13:46:50.049Z,19.35
2022-07-28T13:49:17.408Z,17.45
2022-07-28T13:51:48.533Z,16.16
2022-07-28T13:54:18.521Z,16.09
2022-07-28T13:56:45.791Z,16.10
2022-07-28T13:59:13.845Z,15.56
2022-07-28T14:01:42.465Z,15.96
2022-07-28T14:04:15.001Z,16.78
2022-07-28T14:06:45.328Z,16.43
2022-07-28T14:09:18.193Z,15.86
2022-07-28T14:11:49.576Z,16.22
2022-07-28T14:14:20.540Z,16.48
2022-07-28T14:16:52.402Z,16.40
2022-07-28T14:19:23.342Z,16.67
2022-07-28T14:22:10.510Z,16.24
2022-07-28T14:24:40.135Z,17.72
2022-07-28T14:27:07.055Z,16.46
2022-07-28T14:29:33.864Z,16.91
2022-07-28T14:32:00.689Z,17.73
2022-07-28T14:34:27.496Z,18.24
2022-07-28T14:36:56.496Z,17.75
2022-07-28T14:39:23.224Z,18.41
2022-07-28T14:41:50.833Z,17.93
2022-07-28T14:44:24.401Z,18.01
2022-07-28T14:46:52.235Z,18.75
2022-07-28T14:49:19.176Z,17.57
2022-07-28T14:51:46.155Z,18.42
2022-07-28T14:54:13.521Z,17.85
2022-07-28T14:56:40.575Z,18.81
2022-07-28T14:59:07.418Z,18.28
2022-07-28T15:01:36.110Z,18.25
2022-07-28T15:04:03.796Z,17.37
2022-07-28T15:06:30.636Z,17.42
2022-07-28T15:08:58.633Z,16.47
2022-07-28T15:11:26.336Z,18.85
2022-07-28T15:13:53.095Z,18.13
2022-07-28T15:16:19.995Z,17.57
2022-07-28T15:18:46.885Z,17.74
2022-07-28T15:21:16.807Z,18.35
2022-07-28T15:23:44.308Z,18.05
2022-07-28T15:26:11.548Z,18.56
2022-07-28T15:28:38.836Z,17.73
2022-07-28T15:31:07.801Z,17.35
2022-07-28T15:33:47.750Z,17.04
2022-07-28T15:36:15.865Z,17.33
2022-07-28T15:38:47.446Z,18.30
2022-07-28T15:41:16.629Z,18.83
2022-07-28T15:43:43.700Z,19.78
2022-07-28T15:46:13.165Z,20.13
2022-07-28T15:48:43.417Z,20.17
2022-07-28T15:51:10.731Z,18.98
2022-07-28T15:53:38.306Z,19.64
2022-07-28T15:56:05.534Z,20.07
2022-07-28T15:58:32.465Z,19.99
2022-07-28T16:01:01.007Z,19.66
2022-07-28T16:03:29.795Z,19.59
2022-07-28T16:05:57.376Z,19.28
2022-07-28T16:08:24.326Z,20.15
2022-07-28T16:10:54.245Z,19.72
2022-07-28T16:13:31.338Z,19.86
2022-07-28T16:16:04.408Z,19.74
2022-07-28T16:18:32.176Z,20.28
2022-07-28T16:20:59.216Z,21.16
2022-07-28T16:23:26.143Z,19.93
2022-07-28T16:25:53.082Z,20.53
2022-07-28T16:28:19.938Z,20.63
2022-07-28T16:30:48.172Z,20.99
2022-07-28T16:33:15.006Z,20.93
2022-07-28T16:35:41.836Z,21.29
2022-07-28T16:38:08.655Z,21.45
2022-07-28T16:40:35.583Z,21.63
2022-07-28T16:43:04.437Z,22.18
2022-07-28T16:45:31.730Z,21.77
2022-07-28T16:47:59.314Z,21.93
2022-07-28T16:50:26.097Z,22.36
2022-07-28T16:52:55.738Z,22.54
2022-07-28T16:55:24.615Z,22.99
2022-07-28T16:57:54.160Z,23.23
2022-07-28T17:00:21.602Z,23.90
2022-07-28T17:02:48.477Z,23.84
2022-07-28T17:05:15.376Z,23.98
2022-07-28T17:07:45.536Z,24.51
2022-07-28T17:10:15.448Z,24.63
2022-07-28T17:12:49.696Z,24.93
2022-07-28T17:15:21.959Z,25.74
2022-07-28T17:17:51.032Z,25.62
2022-07-28T17:20:19.104Z,25.27
2022-07-28T17:22:45.924Z,25.54
2022-07-28T17:25:42.939Z,25.97
2022-07-28T17:27:59.911Z,26.16
2022-07-28T17:30:29.820Z,26.78
2022-07-28T17:33:00.026Z,26.97
2022-07-28T17:35:31.918Z,27.65
2022-07-28T17:38:03.912Z,27.88
2022-07-28T17:40:30.936Z,28.00
2022-07-28T17:42:57.825Z,27.79
2022-07-28T17:45:25.083Z,28.58
2022-07-28T17:47:51.995Z,28.35
2022-07-28T17:50:19.004Z,28.13
2022-07-28T17:52:46.781Z,27.98
2022-07-28T17:55:40.761Z,27.87
2022-07-28T17:58:28.113Z,28.11
2022-07-28T18:01:09.579Z,28.47
2022-07-28T18:03:56.577Z,28.42
2022-07-28T18:06:35.514Z,28.62
2022-07-28T18:09:07.912Z,28.77
2022-07-28T18:11:57.428Z,29.91
2022-07-28T18:14:27.849Z,30.71
2022-07-28T18:16:55.105Z,30.94
2022-07-28T18:19:22.003Z,31.40
2022-07-28T18:21:49.373Z,31.45
2022-07-28T18:24:16.903Z,31.90
2022-07-28T18:26:44.194Z,33.11
2022-07-28T18:29:10.999Z,33.12
2022-07-28T18:31:43.825Z,33.50
2022-07-28T18:34:13.734Z,34.05
2022-07-28T18:36:40.843Z,33.75
2022-07-28T18:39:08.726Z,33.97
2022-07-28T18:41:46.176Z,33.40
2022-07-28T18:44:18.561Z,33.96
2022-07-28T18:46:46.246Z,34.39
2022-07-28T18:49:13.456Z,34.13
2022-07-28T18:51:44.229Z,34.74
2022-07-28T18:54:12.758Z,34.58
2022-07-28T18:56:40.096Z,35.52
2022-07-28T18:59:07.656Z,35.32
2022-07-28T19:01:34.715Z,35.65
2022-07-28T19:04:01.823Z,36.05
2022-07-28T19:06:29.667Z,36.53
2022-07-28T19:08:56.477Z,36.92
2022-07-28T19:11:23.375Z,36.44
2022-07-28T19:13:50.276Z,36.72
2022-07-28T19:16:17.344Z,36.69
2022-07-28T19:18:44.194Z,37.46
2022-07-28T19:21:11.137Z,37.43
2022-07-28T19:23:38.256Z,37.38
2022-07-28T19:26:05.157Z,37.88
2022-07-28T19:28:32.376Z,38.35
2022-07-28T19:31:10.112Z,38.38
2022-07-28T19:33:37.667Z,39.58
2022-07-28T19:36:11.217Z,39.74
2022-07-28T19:38:38.136Z,39.37
2022-07-28T19:41:04.955Z,39.80
2022-07-28T19:43:32.056Z,40.74
2022-07-28T19:46:00.333Z,40.64
2022-07-28T19:48:27.457Z,41.33
2022-07-28T19:50:54.675Z,41.72
2022-07-28T19:53:25.111Z,41.70
2022-07-28T19:55:58.572Z,41.73
2022-07-28T19:58:25.505Z,42.54
2022-07-28T20:00:52.682Z,42.18
2022-07-28T20:04:01.759Z,42.58
2022-07-28T20:06:07.684Z,42.19
2022-07-28T20:08:34.502Z,42.50
2022-07-28T20:11:01.615Z,42.21
2022-07-28T20:13:28.555Z,42.66
2022-07-28T20:15:55.956Z,42.78
2022-07-28T20:18:22.706Z,43.33
2022-07-28T20:20:49.595Z,42.50
2022-07-28T20:23:16.574Z,42.52
2022-07-28T20:25:45.437Z,42.98
2022-07-28T20:28:12.607Z,42.77
2022-07-28T20:30:40.226Z,42.30
2022-07-28T20:33:08.285Z,42.66
2022-07-28T20:35:35.337Z,42.31
2022-07-28T20:38:03.196Z,42.81
2022-07-28T20:40:30.325Z,43.15
2022-07-28T20:42:57.113Z,44.45
2022-07-28T20:45:24.014Z,44.27
2022-07-28T20:47:50.794Z,43.72
2022-07-28T20:50:18.005Z,43.03
2022-07-28T20:52:44.875Z,42.75
2022-07-28T20:55:12.577Z,43.11
2022-07-28T20:57:39.517Z,43.23
2022-07-28T21:00:07.286Z,42.67
2022-07-28T21:02:34.376Z,42.75
2022-07-28T21:05:01.368Z,42.30
2022-07-28T21:08:04.611Z,42.46
2022-07-28T21:10:15.045Z,42.78
2022-07-28T21:12:42.037Z,42.61
2022-07-28T21:15:09.684Z,43.30
2022-07-28T21:17:37.126Z,43.67
2022-07-28T21:20:05.130Z,43.44
2022-07-28T21:22:32.007Z,44.62
2022-07-28T21:24:59.398Z,44.76
2022-07-28T21:27:26.397Z,43.63
2022-07-28T21:32:19.223Z,43.23
2022-07-28T21:34:46.174Z,43.00
2022-07-28T21:37:13.918Z,43.10
2022-07-28T21:39:40.803Z,43.83
2022-07-28T21:42:08.730Z,44.06
2022-07-28T21:44:37.135Z,44.41
2022-07-28T21:47:04.468Z,44.79
2022-07-28T21:49:32.621Z,44.46
2022-07-28T21:51:59.819Z,44.21
2022-07-28T21:54:26.661Z,44.92
2022-07-28T21:56:53.476Z,45.29
2022-07-28T21:59:20.336Z,45.03
2022-07-28T22:01:47.919Z,45.72
2022-07-28T22:04:15.399Z,45.49
2022-07-28T22:06:46.183Z,45.86
2022-07-28T22:09:14.929Z,44.91
2022-07-28T22:11:42.246Z,45.12
2022-07-28T22:14:09.674Z,45.48
2022-07-28T22:16:36.548Z,46.13
2022-07-28T22:19:04.005Z,46.96
2022-07-28T22:21:31.339Z,47.06
2022-07-28T22:23:58.171Z,47.18
2022-07-28T22:26:25.143Z,47.19
2022-07-28T22:28:52.000Z,47.04
2022-07-28T22:31:18.929Z,47.22
2022-07-28T22:33:45.804Z,46.96
2022-07-28T22:36:12.756Z,47.24
2022-07-28T22:38:39.521Z,46.31
2022-07-28T22:41:06.392Z,46.73
2022-07-28T22:43:34.081Z,46.04
2022-07-28T22:46:01.271Z,46.79
2022-07-28T22:48:28.530Z,46.80
2022-07-28T22:50:55.820Z,47.73
2022-07-28T22:53:22.651Z,48.04
2022-07-28T22:55:49.535Z,47.15
2022-07-28T22:58:16.426Z,46.86
2022-07-28T23:00:43.886Z,46.57
2022-07-28T23:03:13.256Z,46.79
2022-07-28T23:05:40.452Z,47.00
2022-07-28T23:08:07.439Z,45.92
2022-07-28T23:10:34.868Z,45.65
2022-07-28T23:13:02.187Z,45.75
2022-07-28T23:15:41.214Z,46.43
2022-07-28T23:18:12.027Z,45.86
2022-07-28T23:20:39.327Z,46.18
2022-07-28T23:23:06.948Z,47.05
2022-07-28T23:25:39.761Z,46.21
2022-07-28T23:28:07.925Z,47.34
2022-07-28T23:30:35.090Z,47.71
2022-07-28T23:33:02.026Z,48.12
2022-07-28T23:35:29.026Z,48.96
2022-07-28T23:37:55.983Z,49.33
2022-07-28T23:40:23.045Z,48.70
2022-07-28T23:42:49.893Z,49.19
2022-07-28T23:45:16.825Z,49.74
2022-07-28T23:47:43.657Z,50.50
2022-07-28T23:50:10.866Z,49.70
2022-07-28T23:52:37.746Z,49.36
2022-07-28T23:55:05.295Z,49.33
2022-07-28T23:57:32.131Z,49.85
